sensor_id;sensor_type;location;lat;lon;timestamp;pressure;altitude;pressure_sealevel;temperature;humidity
11971;BME280;6045;42.682;23.294;2023-07-13T00:00:09;94905.50;;;26.30;54.18
11971;BME280;6045;42.682;23.294;2023-07-13T00:02:36;94897.09;;;26.26;53.43
11971;BME280;6045;42.682;23.294;2023-07-13T00:05:04;94902.75;;;26.21;53.96
11971;BME280;6045;42.682;23.294;2023-07-13T00:07:31;94901.94;;;26.21;53.79
11971;BME280;6045;42.682;23.294;2023-07-13T00:10:00;94897.44;;;26.25;54.54
11971;BME280;6045;42.682;23.294;2023-07-13T00:12:29;94900.00;;;26.30;54.82
11971;BME280;6045;42.682;23.294;2023-07-13T00:14:57;94894.53;;;26.30;54.61
11971;BME280;6045;42.682;23.294;2023-07-13T00:17:26;94896.78;;;26.28;54.55
11971;BME280;6045;42.682;23.294;2023-07-13T00:19:53;94889.38;;;26.28;55.20
11971;BME280;6045;42.682;23.294;2023-07-13T00:22:21;94889.69;;;26.27;55.51
11971;BME280;6045;42.682;23.294;2023-07-13T00:24:51;94885.16;;;26.22;55.48
11971;BME280;6045;42.682;23.294;2023-07-13T00:27:19;94886.94;;;26.18;55.55
11971;BME280;6045;42.682;23.294;2023-07-13T00:29:46;94885.66;;;26.16;55.69
11971;BME280;6045;42.682;23.294;2023-07-13T00:32:12;94885.16;;;26.14;55.55
11971;BME280;6045;42.682;23.294;2023-07-13T00:34:39;94881.94;;;26.12;55.64
11971;BME280;6045;42.682;23.294;2023-07-13T00:37:07;94884.81;;;26.07;55.92
11971;BME280;6045;42.682;23.294;2023-07-13T00:39:34;94877.50;;;25.94;56.05
11971;BME280;6045;42.682;23.294;2023-07-13T00:42:02;94889.44;;;25.80;56.42
11971;BME280;6045;42.682;23.294;2023-07-13T00:44:31;94888.13;;;25.69;56.68
11971;BME280;6045;42.682;23.294;2023-07-13T00:46:58;94893.38;;;25.57;57.17
11971;BME280;6045;42.682;23.294;2023-07-13T00:49:27;94887.25;;;25.60;57.64
11971;BME280;6045;42.682;23.294;2023-07-13T00:51:56;94888.34;;;25.51;58.33
11971;BME280;6045;42.682;23.294;2023-07-13T00:54:26;94886.91;;;25.53;58.16
11971;BME280;6045;42.682;23.294;2023-07-13T00:56:56;94881.41;;;25.45;58.67
11971;BME280;6045;42.682;23.294;2023-07-13T00:59:24;94875.88;;;25.36;59.13
11971;BME280;6045;42.682;23.294;2023-07-13T01:01:53;94878.75;;;25.31;58.59
11971;BME280;6045;42.682;23.294;2023-07-13T01:04:20;94882.78;;;25.34;58.94
11971;BME280;6045;42.682;23.294;2023-07-13T01:06:49;94873.94;;;25.37;59.40
11971;BME280;6045;42.682;23.294;2023-07-13T01:09:16;94879.50;;;25.45;59.06
11971;BME280;6045;42.682;23.294;2023-07-13T01:11:43;94879.66;;;25.49;59.12
11971;BME280;6045;42.682;23.294;2023-07-13T01:14:10;94882.88;;;25.51;59.09
11971;BME280;6045;42.682;23.294;2023-07-13T01:16:39;94874.66;;;25.51;59.31
11971;BME280;6045;42.682;23.294;2023-07-13T01:19:16;94873.50;;;25.43;59.14
11971;BME280;6045;42.682;23.294;2023-07-13T01:21:52;94876.50;;;25.33;59.53
11971;BME280;6045;42.682;23.294;2023-07-13T01:24:20;94865.22;;;25.26;59.82
11971;BME280;6045;42.682;23.294;2023-07-13T01:26:47;94863.09;;;25.23;60.03
11971;BME280;6045;42.682;23.294;2023-07-13T01:29:14;94870.00;;;25.21;59.93
11971;BME280;6045;42.682;23.294;2023-07-13T01:31:40;94874.16;;;25.18;60.57
11971;BME280;6045;42.682;23.294;2023-07-13T01:34:09;94872.56;;;25.17;60.25
11971;BME280;6045;42.682;23.294;2023-07-13T01:36:36;94870.50;;;25.23;60.50
11971;BME280;6045;42.682;23.294;2023-07-13T01:39:04;94874.03;;;25.23;60.67
11971;BME280;6045;42.682;23.294;2023-07-13T01:41:31;94860.84;;;25.25;60.71
11971;BME280;6045;42.682;23.294;2023-07-13T01:43:58;94862.47;;;25.26;60.25
11971;BME280;6045;42.682;23.294;2023-07-13T01:46:24;94866.31;;;25.25;60.67
11971;BME280;6045;42.682;23.294;2023-07-13T01:48:51;94858.44;;;25.24;60.71
11971;BME280;6045;42.682;23.294;2023-07-13T01:51:18;94865.22;;;25.26;60.59
11971;BME280;6045;42.682;23.294;2023-07-13T01:53:45;94865.38;;;25.30;60.26
11971;BME280;6045;42.682;23.294;2023-07-13T01:56:13;94865.56;;;25.33;60.44
11971;BME280;6045;42.682;23.294;2023-07-13T01:58:40;94863.09;;;25.23;60.15
11971;BME280;6045;42.682;23.294;2023-07-13T02:01:07;94865.31;;;25.12;60.97
11971;BME280;6045;42.682;23.294;2023-07-13T02:03:34;94870.59;;;25.09;60.66
11971;BME280;6045;42.682;23.294;2023-07-13T02:06:01;94877.06;;;25.13;60.78
11971;BME280;6045;42.682;23.294;2023-07-13T02:08:28;94874.47;;;25.08;60.96
11971;BME280;6045;42.682;23.294;2023-07-13T02:10:55;94876.38;;;25.07;60.93
11971;BME280;6045;42.682;23.294;2023-07-13T02:13:23;94879.13;;;25.07;60.72
11971;BME280;6045;42.682;23.294;2023-07-13T02:15:51;94872.47;;;25.00;60.77
11971;BME280;6045;42.682;23.294;2023-07-13T02:18:18;94877.13;;;24.99;60.36
11971;BME280;6045;42.682;23.294;2023-07-13T02:20:45;94872.38;;;24.83;60.86
11971;BME280;6045;42.682;23.294;2023-07-13T02:23:12;94873.72;;;24.72;61.92
11971;BME280;6045;42.682;23.294;2023-07-13T02:25:39;94872.25;;;24.66;62.79
11971;BME280;6045;42.682;23.294;2023-07-13T02:28:06;94885.56;;;24.81;62.48
11971;BME280;6045;42.682;23.294;2023-07-13T02:30:34;94879.56;;;25.01;61.97
11971;BME280;6045;42.682;23.294;2023-07-13T02:33:02;94882.03;;;25.11;61.31
11971;BME280;6045;42.682;23.294;2023-07-13T02:35:29;94893.56;;;25.30;60.73
11971;BME280;6045;42.682;23.294;2023-07-13T02:37:55;94884.59;;;25.38;60.52
11971;BME280;6045;42.682;23.294;2023-07-13T02:40:22;94885.94;;;25.49;60.26
11971;BME280;6045;42.682;23.294;2023-07-13T02:42:49;94887.72;;;25.54;60.15
11971;BME280;6045;42.682;23.294;2023-07-13T02:45:16;94882.78;;;25.64;59.85
11971;BME280;6045;42.682;23.294;2023-07-13T02:47:44;94872.94;;;25.63;59.84
11971;BME280;6045;42.682;23.294;2023-07-13T02:50:11;94888.25;;;25.64;59.79
11971;BME280;6045;42.682;23.294;2023-07-13T02:52:38;94883.25;;;25.66;59.47
11971;BME280;6045;42.682;23.294;2023-07-13T02:55:07;94885.38;;;25.78;59.69
11971;BME280;6045;42.682;23.294;2023-07-13T02:57:34;94882.66;;;25.87;59.30
11971;BME280;6045;42.682;23.294;2023-07-13T03:00:01;94882.50;;;25.92;59.19
11971;BME280;6045;42.682;23.294;2023-07-13T03:02:30;94884.94;;;25.93;59.13
11971;BME280;6045;42.682;23.294;2023-07-13T03:04:59;94894.13;;;25.97;59.11
11971;BME280;6045;42.682;23.294;2023-07-13T03:07:25;94893.81;;;25.99;58.97
11971;BME280;6045;42.682;23.294;2023-07-13T03:09:54;94897.34;;;25.91;59.26
11971;BME280;6045;42.682;23.294;2023-07-13T03:12:20;94894.44;;;25.96;59.60
11971;BME280;6045;42.682;23.294;2023-07-13T03:14:47;94904.63;;;26.04;58.93
11971;BME280;6045;42.682;23.294;2023-07-13T03:17:14;94894.13;;;26.06;59.10
11971;BME280;6045;42.682;23.294;2023-07-13T03:19:41;94896.72;;;26.02;58.97
11971;BME280;6045;42.682;23.294;2023-07-13T03:22:09;94900.25;;;26.03;59.03
11971;BME280;6045;42.682;23.294;2023-07-13T03:24:35;94898.66;;;26.02;58.89
11971;BME280;6045;42.682;23.294;2023-07-13T03:27:04;94900.59;;;26.01;59.10
11971;BME280;6045;42.682;23.294;2023-07-13T03:29:31;94893.81;;;25.99;59.57
11971;BME280;6045;42.682;23.294;2023-07-13T03:31:58;94895.91;;;25.93;60.61
11971;BME280;6045;42.682;23.294;2023-07-13T03:34:25;94909.41;;;25.81;62.72
11971;BME280;6045;42.682;23.294;2023-07-13T03:36:54;94903.13;;;25.80;64.25
11971;BME280;6045;42.682;23.294;2023-07-13T03:39:22;94907.66;;;25.94;63.58
11971;BME280;6045;42.682;23.294;2023-07-13T03:41:49;94912.16;;;25.98;65.17
11971;BME280;6045;42.682;23.294;2023-07-13T03:44:16;94905.09;;;26.06;64.39
11971;BME280;6045;42.682;23.294;2023-07-13T03:46:44;94903.66;;;26.08;66.79
11971;BME280;6045;42.682;23.294;2023-07-13T03:49:11;94905.47;;;26.13;69.19
11971;BME280;6045;42.682;23.294;2023-07-13T03:51:38;94906.75;;;26.15;69.77
11971;BME280;6045;42.682;23.294;2023-07-13T03:54:05;94910.81;;;26.18;67.44
11971;BME280;6045;42.682;23.294;2023-07-13T03:56:33;94900.81;;;26.22;67.90
11971;BME280;6045;42.682;23.294;2023-07-13T03:59:00;94902.44;;;26.23;64.90
11971;BME280;6045;42.682;23.294;2023-07-13T04:01:27;94892.44;;;26.27;64.01
11971;BME280;6045;42.682;23.294;2023-07-13T04:03:54;94895.97;;;26.27;63.08
11971;BME280;6045;42.682;23.294;2023-07-13T04:06:22;94891.78;;;26.30;62.41
11971;BME280;6045;42.682;23.294;2023-07-13T04:08:51;94902.28;;;26.28;61.37
11971;BME280;6045;42.682;23.294;2023-07-13T04:11:19;94894.03;;;26.45;61.53
11971;BME280;6045;42.682;23.294;2023-07-13T04:13:48;94897.94;;;26.61;62.06
11971;BME280;6045;42.682;23.294;2023-07-13T04:16:16;94902.59;;;26.69;61.04
11971;BME280;6045;42.682;23.294;2023-07-13T04:18:44;94894.53;;;26.64;61.15
11971;BME280;6045;42.682;23.294;2023-07-13T04:21:11;94900.19;;;26.68;60.81
11971;BME280;6045;42.682;23.294;2023-07-13T04:23:38;94902.91;;;26.68;60.67
11971;BME280;6045;42.682;23.294;2023-07-13T04:26:06;94910.34;;;26.67;60.56
11971;BME280;6045;42.682;23.294;2023-07-13T04:28:33;94915.84;;;26.84;60.96
11971;BME280;6045;42.682;23.294;2023-07-13T04:31:02;94919.41;;;26.85;60.27
11971;BME280;6045;42.682;23.294;2023-07-13T04:33:29;94920.03;;;26.90;59.90
11971;BME280;6045;42.682;23.294;2023-07-13T04:35:56;94918.75;;;26.96;60.04
11971;BME280;6045;42.682;23.294;2023-07-13T04:38:26;94921.81;;;27.03;59.67
11971;BME280;6045;42.682;23.294;2023-07-13T04:40:55;94933.09;;;27.10;59.43
11971;BME280;6045;42.682;23.294;2023-07-13T04:43:22;94919.97;;;27.16;59.07
11971;BME280;6045;42.682;23.294;2023-07-13T04:45:49;94933.72;;;27.07;58.63
11971;BME280;6045;42.682;23.294;2023-07-13T04:48:18;94919.66;;;27.09;58.74
11971;BME280;6045;42.682;23.294;2023-07-13T04:50:45;94930.34;;;27.10;58.50
11971;BME280;6045;42.682;23.294;2023-07-13T04:53:12;94933.88;;;27.11;58.60
11971;BME280;6045;42.682;23.294;2023-07-13T04:55:39;94934.38;;;27.13;58.74
11971;BME280;6045;42.682;23.294;2023-07-13T04:58:06;94940.19;;;27.11;57.54
11971;BME280;6045;42.682;23.294;2023-07-13T05:00:33;94943.22;;;27.19;58.31
11971;BME280;6045;42.682;23.294;2023-07-13T05:03:00;94939.66;;;27.27;57.92
11971;BME280;6045;42.682;23.294;2023-07-13T05:05:28;94936.75;;;27.32;57.60
11971;BME280;6045;42.682;23.294;2023-07-13T05:07:54;94937.09;;;27.22;58.34
11971;BME280;6045;42.682;23.294;2023-07-13T05:10:22;94941.47;;;27.23;58.07
11971;BME280;6045;42.682;23.294;2023-07-13T05:12:49;94932.91;;;27.24;57.96
11971;BME280;6045;42.682;23.294;2023-07-13T05:15:17;94939.66;;;27.27;57.65
11971;BME280;6045;42.682;23.294;2023-07-13T05:17:46;94944.34;;;27.26;57.66
11971;BME280;6045;42.682;23.294;2023-07-13T05:20:13;94948.38;;;27.29;58.00
11971;BME280;6045;42.682;23.294;2023-07-13T05:22:41;94944.00;;;27.36;57.77
11971;BME280;6045;42.682;23.294;2023-07-13T05:25:08;94944.66;;;27.42;57.09
11971;BME280;6045;42.682;23.294;2023-07-13T05:27:36;94946.41;;;27.46;57.23
11971;BME280;6045;42.682;23.294;2023-07-13T05:30:03;94941.72;;;27.55;57.57
11971;BME280;6045;42.682;23.294;2023-07-13T05:32:31;94953.16;;;27.66;56.87
11971;BME280;6045;42.682;23.294;2023-07-13T05:34:57;94947.63;;;27.74;56.04
11971;BME280;6045;42.682;23.294;2023-07-13T05:37:24;94955.31;;;27.90;56.26
11971;BME280;6045;42.682;23.294;2023-07-13T05:39:52;94956.25;;;28.02;55.67
11971;BME280;6045;42.682;23.294;2023-07-13T05:42:19;94957.34;;;28.10;55.42
11971;BME280;6045;42.682;23.294;2023-07-13T05:44:46;94953.78;;;28.09;55.42
11971;BME280;6045;42.682;23.294;2023-07-13T05:47:12;94964.31;;;28.07;54.80
11971;BME280;6045;42.682;23.294;2023-07-13T05:49:40;94960.28;;;27.96;55.77
11971;BME280;6045;42.682;23.294;2023-07-13T05:52:07;94956.13;;;27.90;54.00
11971;BME280;6045;42.682;23.294;2023-07-13T05:54:34;94953.59;;;27.76;55.22
11971;BME280;6045;42.682;23.294;2023-07-13T05:57:02;94953.38;;;27.90;55.30
11971;BME280;6045;42.682;23.294;2023-07-13T05:59:29;94947.81;;;27.99;56.05
11971;BME280;6045;42.682;23.294;2023-07-13T06:01:56;94941.06;;;28.05;55.06
11971;BME280;6045;42.682;23.294;2023-07-13T06:04:22;94944.78;;;28.00;54.96
11971;BME280;6045;42.682;23.294;2023-07-13T06:06:49;94938.72;;;28.15;54.63
11971;BME280;6045;42.682;23.294;2023-07-13T06:09:16;94930.94;;;28.17;54.53
11971;BME280;6045;42.682;23.294;2023-07-13T06:11:43;94941.56;;;28.27;54.17
11971;BME280;6045;42.682;23.294;2023-07-13T06:14:11;94956.28;;;28.52;54.03
11971;BME280;6045;42.682;23.294;2023-07-13T06:16:39;94954.94;;;28.58;52.25
11971;BME280;6045;42.682;23.294;2023-07-13T06:19:06;94947.88;;;28.78;51.79
11971;BME280;6045;42.682;23.294;2023-07-13T06:21:33;94953.63;;;28.64;52.09
11971;BME280;6045;42.682;23.294;2023-07-13T06:24:00;94959.53;;;28.75;52.50
11971;BME280;6045;42.682;23.294;2023-07-13T06:26:26;94952.94;;;28.88;51.77
11971;BME280;6045;42.682;23.294;2023-07-13T06:28:53;94964.66;;;28.85;53.73
11971;BME280;6045;42.682;23.294;2023-07-13T06:31:21;94958.50;;;28.59;53.48
11971;BME280;6045;42.682;23.294;2023-07-13T06:33:48;94948.72;;;28.70;51.67
11971;BME280;6045;42.682;23.294;2023-07-13T06:36:15;94958.00;;;28.65;51.79
11971;BME280;6045;42.682;23.294;2023-07-13T06:38:41;94947.06;;;28.77;52.40
11971;BME280;6045;42.682;23.294;2023-07-13T06:41:08;94946.50;;;28.84;52.60
11971;BME280;6045;42.682;23.294;2023-07-13T06:43:35;94942.28;;;28.86;52.52
11971;BME280;6045;42.682;23.294;2023-07-13T06:46:02;94941.19;;;28.79;52.66
11971;BME280;6045;42.682;23.294;2023-07-13T06:48:30;94938.91;;;29.01;52.63
11971;BME280;6045;42.682;23.294;2023-07-13T06:50:57;94939.00;;;29.26;53.05
11971;BME280;6045;42.682;23.294;2023-07-13T06:53:26;94940.16;;;29.57;53.06
11971;BME280;6045;42.682;23.294;2023-07-13T06:55:53;94941.75;;;29.70;50.14
11971;BME280;6045;42.682;23.294;2023-07-13T06:58:21;94938.53;;;29.56;48.38
11971;BME280;6045;42.682;23.294;2023-07-13T07:00:50;94944.28;;;29.75;49.72
11971;BME280;6045;42.682;23.294;2023-07-13T07:03:17;94948.38;;;29.90;50.42
11971;BME280;6045;42.682;23.294;2023-07-13T07:05:45;94951.38;;;30.09;50.59
11971;BME280;6045;42.682;23.294;2023-07-13T07:08:11;94945.06;;;30.33;50.00
11971;BME280;6045;42.682;23.294;2023-07-13T07:10:38;94947.81;;;30.45;49.10
11971;BME280;6045;42.682;23.294;2023-07-13T07:13:05;94947.06;;;30.72;46.64
11971;BME280;6045;42.682;23.294;2023-07-13T07:15:32;94942.44;;;30.76;47.61
11971;BME280;6045;42.682;23.294;2023-07-13T07:17:58;94946.91;;;30.93;48.08
11971;BME280;6045;42.682;23.294;2023-07-13T07:20:25;94940.69;;;30.96;48.31
11971;BME280;6045;42.682;23.294;2023-07-13T07:22:53;94937.75;;;31.17;46.78
11971;BME280;6045;42.682;23.294;2023-07-13T07:25:20;94942.56;;;31.20;47.37
11971;BME280;6045;42.682;23.294;2023-07-13T07:27:46;94934.06;;;31.40;46.74
11971;BME280;6045;42.682;23.294;2023-07-13T07:30:13;94935.38;;;31.58;47.40
11971;BME280;6045;42.682;23.294;2023-07-13T07:32:40;94936.47;;;31.69;44.02
11971;BME280;6045;42.682;23.294;2023-07-13T07:35:08;94935.75;;;31.88;43.82
11971;BME280;6045;42.682;23.294;2023-07-13T07:37:35;94932.50;;;31.98;43.36
11971;BME280;6045;42.682;23.294;2023-07-13T07:40:03;94929.47;;;32.03;42.72
11971;BME280;6045;42.682;23.294;2023-07-13T07:42:30;94922.91;;;31.80;42.67
11971;BME280;6045;42.682;23.294;2023-07-13T07:44:57;94918.44;;;31.60;42.69
11971;BME280;6045;42.682;23.294;2023-07-13T07:47:23;94924.28;;;31.43;42.84
11971;BME280;6045;42.682;23.294;2023-07-13T07:49:50;94922.47;;;31.35;43.40
11971;BME280;6045;42.682;23.294;2023-07-13T07:52:17;94925.31;;;31.38;42.78
11971;BME280;6045;42.682;23.294;2023-07-13T07:54:44;94914.66;;;31.52;43.00
11971;BME280;6045;42.682;23.294;2023-07-13T07:57:12;94914.53;;;31.76;44.67
11971;BME280;6045;42.682;23.294;2023-07-13T07:59:39;94910.75;;;31.69;44.53
11971;BME280;6045;42.682;23.294;2023-07-13T08:02:08;94903.47;;;31.76;43.95
11971;BME280;6045;42.682;23.294;2023-07-13T08:04:35;94898.13;;;32.15;42.24
11971;BME280;6045;42.682;23.294;2023-07-13T08:07:01;94893.28;;;31.96;41.86
11971;BME280;6045;42.682;23.294;2023-07-13T08:09:29;94889.72;;;31.80;40.79
11971;BME280;6045;42.682;23.294;2023-07-13T08:11:58;94888.47;;;31.77;42.57
11971;BME280;6045;42.682;23.294;2023-07-13T08:14:26;94891.50;;;32.19;41.61
11971;BME280;6045;42.682;23.294;2023-07-13T08:16:52;94897.59;;;32.60;40.73
11971;BME280;6045;42.682;23.294;2023-07-13T08:19:19;94886.66;;;32.86;40.50
11971;BME280;6045;42.682;23.294;2023-07-13T08:21:46;94886.69;;;33.24;39.85
11971;BME280;6045;42.682;23.294;2023-07-13T08:24:14;94893.06;;;33.47;39.87
11971;BME280;6045;42.682;23.294;2023-07-13T08:26:44;94872.81;;;33.66;38.50
11971;BME280;6045;42.682;23.294;2023-07-13T08:29:10;94875.59;;;33.89;38.00
11971;BME280;6045;42.682;23.294;2023-07-13T08:31:38;94888.38;;;33.70;37.83
11971;BME280;6045;42.682;23.294;2023-07-13T08:34:05;94880.09;;;33.74;39.11
11971;BME280;6045;42.682;23.294;2023-07-13T08:36:32;94873.19;;;33.64;38.30
11971;BME280;6045;42.682;23.294;2023-07-13T08:38:58;94873.88;;;33.81;37.13
11971;BME280;6045;42.682;23.294;2023-07-13T08:41:26;94863.47;;;33.74;38.63
11971;BME280;6045;42.682;23.294;2023-07-13T08:43:56;94866.78;;;33.83;39.19
11971;BME280;6045;42.682;23.294;2023-07-13T08:46:27;94869.69;;;34.13;37.20
11971;BME280;6045;42.682;23.294;2023-07-13T08:48:58;94872.88;;;34.41;36.20
11971;BME280;6045;42.682;23.294;2023-07-13T08:51:46;94874.44;;;34.65;36.98
11971;BME280;6045;42.682;23.294;2023-07-13T08:54:21;94872.31;;;34.84;36.97
11971;BME280;6045;42.682;23.294;2023-07-13T08:56:50;94873.50;;;34.83;35.96
11971;BME280;6045;42.682;23.294;2023-07-13T08:59:22;94882.16;;;34.78;37.47
11971;BME280;6045;42.682;23.294;2023-07-13T09:02:00;94883.94;;;34.93;36.21
11971;BME280;6045;42.682;23.294;2023-07-13T09:04:36;94895.66;;;35.10;34.63
11971;BME280;6045;42.682;23.294;2023-07-13T09:07:10;94899.84;;;35.26;36.43
11971;BME280;6045;42.682;23.294;2023-07-13T09:09:50;94906.03;;;35.46;37.19
11971;BME280;6045;42.682;23.294;2023-07-13T09:12:27;94909.47;;;35.65;36.84
11971;BME280;6045;42.682;23.294;2023-07-13T09:14:59;94906.56;;;35.55;36.25
11971;BME280;6045;42.682;23.294;2023-07-13T09:17:34;94897.19;;;35.73;36.12
11971;BME280;6045;42.682;23.294;2023-07-13T09:20:10;94896.66;;;35.98;35.69
11971;BME280;6045;42.682;23.294;2023-07-13T09:22:43;94894.97;;;35.90;36.23
11971;BME280;6045;42.682;23.294;2023-07-13T09:25:21;94899.50;;;36.01;35.08
11971;BME280;6045;42.682;23.294;2023-07-13T09:27:53;94899.13;;;36.06;34.06
11971;BME280;6045;42.682;23.294;2023-07-13T09:30:26;94902.28;;;36.01;34.87
11971;BME280;6045;42.682;23.294;2023-07-13T09:32:55;94906.28;;;36.07;36.55
11971;BME280;6045;42.682;23.294;2023-07-13T09:35:27;94898.00;;;36.14;34.81
11971;BME280;6045;42.682;23.294;2023-07-13T09:37:58;94895.56;;;36.09;35.41
11971;BME280;6045;42.682;23.294;2023-07-13T09:40:32;94891.63;;;36.10;35.04
11971;BME280;6045;42.682;23.294;2023-07-13T09:43:03;94886.91;;;36.21;36.80
11971;BME280;6045;42.682;23.294;2023-07-13T09:45:33;94884.22;;;36.32;35.62
11971;BME280;6045;42.682;23.294;2023-07-13T09:48:04;94875.66;;;36.58;34.60
11971;BME280;6045;42.682;23.294;2023-07-13T09:50:33;94870.56;;;36.67;35.66
11971;BME280;6045;42.682;23.294;2023-07-13T09:53:01;94865.44;;;36.80;33.41
11971;BME280;6045;42.682;23.294;2023-07-13T09:55:31;94863.19;;;37.07;33.42
11971;BME280;6045;42.682;23.294;2023-07-13T09:58:03;94866.22;;;36.84;31.17
11971;BME280;6045;42.682;23.294;2023-07-13T10:00:31;94855.41;;;36.68;32.26
11971;BME280;6045;42.682;23.294;2023-07-13T10:03:02;94858.88;;;36.51;32.23
11971;BME280;6045;42.682;23.294;2023-07-13T10:05:39;94846.00;;;36.32;29.93
11971;BME280;6045;42.682;23.294;2023-07-13T10:08:16;94851.63;;;36.36;29.04
11971;BME280;6045;42.682;23.294;2023-07-13T10:10:44;94845.91;;;36.18;26.39
11971;BME280;6045;42.682;23.294;2023-07-13T10:13:25;94835.63;;;36.26;27.62
11971;BME280;6045;42.682;23.294;2023-07-13T10:15:52;94842.66;;;36.09;26.20
11971;BME280;6045;42.682;23.294;2023-07-13T10:18:21;94845.00;;;36.04;26.50
11971;BME280;6045;42.682;23.294;2023-07-13T10:20:50;94855.13;;;35.79;26.59
11971;BME280;6045;42.682;23.294;2023-07-13T10:23:27;94848.25;;;35.69;26.52
11971;BME280;6045;42.682;23.294;2023-07-13T10:25:59;94834.69;;;35.64;26.75
11971;BME280;6045;42.682;23.294;2023-07-13T10:28:30;94847.22;;;35.84;27.24
11971;BME280;6045;42.682;23.294;2023-07-13T10:30:59;94841.41;;;36.00;26.91
11971;BME280;6045;42.682;23.294;2023-07-13T10:33:28;94840.66;;;36.06;28.18
11971;BME280;6045;42.682;23.294;2023-07-13T10:36:01;94826.31;;;36.04;25.85
11971;BME280;6045;42.682;23.294;2023-07-13T10:38:31;94835.13;;;36.10;26.39
11971;BME280;6045;42.682;23.294;2023-07-13T10:41:01;94823.72;;;36.32;27.13
11971;BME280;6045;42.682;23.294;2023-07-13T10:43:34;94821.91;;;36.54;27.23
11971;BME280;6045;42.682;23.294;2023-07-13T10:46:05;94823.97;;;36.68;26.23
11971;BME280;6045;42.682;23.294;2023-07-13T10:48:32;94808.97;;;36.93;26.93
11971;BME280;6045;42.682;23.294;2023-07-13T10:51:01;94808.22;;;37.07;26.62
11971;BME280;6045;42.682;23.294;2023-07-13T10:53:33;94811.31;;;36.88;24.83
11971;BME280;6045;42.682;23.294;2023-07-13T10:56:02;94801.63;;;36.61;25.92
11971;BME280;6045;42.682;23.294;2023-07-13T10:58:36;94795.84;;;36.22;25.77
11971;BME280;6045;42.682;23.294;2023-07-13T11:01:14;94804.50;;;36.13;26.13
11971;BME280;6045;42.682;23.294;2023-07-13T11:03:48;94791.84;;;36.19;26.16
11971;BME280;6045;42.682;23.294;2023-07-13T11:06:31;94797.44;;;36.26;26.43
11971;BME280;6045;42.682;23.294;2023-07-13T11:09:18;94781.28;;;36.46;28.42
11971;BME280;6045;42.682;23.294;2023-07-13T11:11:45;94779.31;;;36.54;25.71
11971;BME280;6045;42.682;23.294;2023-07-13T11:14:34;94787.88;;;36.27;25.92
11971;BME280;6045;42.682;23.294;2023-07-13T11:17:36;94775.03;;;36.09;26.75
11971;BME280;6045;42.682;23.294;2023-07-13T11:20:20;94777.22;;;36.36;28.04
11971;BME280;6045;42.682;23.294;2023-07-13T11:22:52;94777.25;;;36.44;26.55
11971;BME280;6045;42.682;23.294;2023-07-13T11:25:27;94780.00;;;36.36;26.40
11971;BME280;6045;42.682;23.294;2023-07-13T11:28:16;94778.44;;;36.39;26.34
11971;BME280;6045;42.682;23.294;2023-07-13T11:30:47;94771.25;;;36.38;26.14
11971;BME280;6045;42.682;23.294;2023-07-13T11:33:17;94763.34;;;36.44;25.64
11971;BME280;6045;42.682;23.294;2023-07-13T11:35:49;94759.44;;;36.55;26.93
11971;BME280;6045;42.682;23.294;2023-07-13T11:38:21;94763.44;;;36.68;27.82
11971;BME280;6045;42.682;23.294;2023-07-13T11:40:50;94757.53;;;36.91;28.71
11971;BME280;6045;42.682;23.294;2023-07-13T11:43:18;94759.97;;;36.96;26.07
11971;BME280;6045;42.682;23.294;2023-07-13T11:45:45;94759.16;;;36.88;26.86
11971;BME280;6045;42.682;23.294;2023-07-13T11:48:24;94763.59;;;36.93;26.80
11971;BME280;6045;42.682;23.294;2023-07-13T11:50:59;94766.38;;;37.03;28.31
11971;BME280;6045;42.682;23.294;2023-07-13T11:53:32;94744.91;;;37.18;26.97
11971;BME280;6045;42.682;23.294;2023-07-13T11:56:04;94750.09;;;37.16;26.47
11971;BME280;6045;42.682;23.294;2023-07-13T11:58:32;94736.53;;;37.18;28.35
11971;BME280;6045;42.682;23.294;2023-07-13T12:01:01;94731.38;;;37.34;26.77
11971;BME280;6045;42.682;23.294;2023-07-13T12:03:30;94749.31;;;37.19;26.32
11971;BME280;6045;42.682;23.294;2023-07-13T12:06:01;94730.19;;;37.21;27.37
11971;BME280;6045;42.682;23.294;2023-07-13T12:08:28;94734.56;;;37.29;26.66
11971;BME280;6045;42.682;23.294;2023-07-13T12:11:04;94724.59;;;37.21;25.41
11971;BME280;6045;42.682;23.294;2023-07-13T12:13:37;94728.56;;;37.27;26.17
11971;BME280;6045;42.682;23.294;2023-07-13T12:16:14;94721.41;;;37.19;25.76
11971;BME280;6045;42.682;23.294;2023-07-13T12:18:43;94721.78;;;37.18;26.77
11971;BME280;6045;42.682;23.294;2023-07-13T12:21:13;94715.81;;;37.05;24.62
11971;BME280;6045;42.682;23.294;2023-07-13T12:23:43;94699.09;;;37.05;25.84
11971;BME280;6045;42.682;23.294;2023-07-13T12:26:12;94701.88;;;37.16;27.54
11971;BME280;6045;42.682;23.294;2023-07-13T12:28:46;94697.09;;;37.27;27.28
11971;BME280;6045;42.682;23.294;2023-07-13T12:31:29;94689.53;;;37.20;24.65
11971;BME280;6045;42.682;23.294;2023-07-13T12:33:58;94687.94;;;36.98;26.32
11971;BME280;6045;42.682;23.294;2023-07-13T12:36:25;94685.91;;;37.06;26.39
11971;BME280;6045;42.682;23.294;2023-07-13T12:38:54;94691.53;;;37.23;26.78
11971;BME280;6045;42.682;23.294;2023-07-13T12:41:23;94689.53;;;37.20;25.49
11971;BME280;6045;42.682;23.294;2023-07-13T12:43:50;94691.81;;;36.86;25.72
11971;BME280;6045;42.682;23.294;2023-07-13T12:46:24;94677.47;;;36.70;26.04
11971;BME280;6045;42.682;23.294;2023-07-13T12:48:53;94673.50;;;36.75;26.57
11971;BME280;6045;42.682;23.294;2023-07-13T12:51:22;94683.06;;;36.77;25.80
11971;BME280;6045;42.682;23.294;2023-07-13T12:53:50;94690.59;;;36.70;24.85
11971;BME280;6045;42.682;23.294;2023-07-13T12:56:24;94670.72;;;36.82;26.22
11971;BME280;6045;42.682;23.294;2023-07-13T12:58:56;94664.81;;;36.97;25.38
11971;BME280;6045;42.682;23.294;2023-07-13T13:01:26;94665.97;;;36.86;25.40
11971;BME280;6045;42.682;23.294;2023-07-13T13:03:54;94673.50;;;36.75;25.57
11971;BME280;6045;42.682;23.294;2023-07-13T13:06:24;94667.91;;;36.64;25.62
11971;BME280;6045;42.682;23.294;2023-07-13T13:08:52;94666.31;;;36.67;25.14